sensor_id;sensor_type;location;lat;lon;timestamp;P1;durP1;ratioP1;P2;durP2;ratioP2
47758;SDS011;33520;55.122;35.582;2022-12-10T00:01:33;29.17;;;10.45;;
47758;SDS011;33520;55.122;35.582;2022-12-10T00:04:00;28.83;;;12.43;;
47758;SDS011;33520;55.122;35.582;2022-12-10T00:06:28;31.50;;;12.05;;
47758;SDS011;33520;55.122;35.582;2022-12-10T00:08:56;32.70;;;11.27;;
47758;SDS011;33520;55.122;35.582;2022-12-10T00:11:23;29.85;;;11.48;;
47758;SDS011;33520;55.122;35.582;2022-12-10T00:13:50;31.42;;;13.02;;
47758;SDS011;33520;55.122;35.582;2022-12-10T00:16:18;35.50;;;11.95;;
47758;SDS011;33520;55.122;35.582;2022-12-10T00:18:50;29.20;;;12.20;;
47758;SDS011;33520;55.122;35.582;2022-12-10T00:21:21;32.95;;;12.18;;
47758;SDS011;33520;55.122;35.582;2022-12-10T00:23:52;27.23;;;10.65;;
47758;SDS011;33520;55.122;35.582;2022-12-10T00:28:49;30.90;;;10.93;;
47758;SDS011;33520;55.122;35.582;2022-12-10T00:31:18;30.77;;;11.35;;
47758;SDS011;33520;55.122;35.582;2022-12-10T00:33:55;28.60;;;12.15;;
47758;SDS011;33520;55.122;35.582;2022-12-10T00:36:26;31.90;;;11.30;;
47758;SDS011;33520;55.122;35.582;2022-12-10T00:38:58;28.95;;;11.63;;
47758;SDS011;33520;55.122;35.582;2022-12-10T00:41:27;32.65;;;11.68;;
47758;SDS011;33520;55.122;35.582;2022-12-10T00:43:54;30.60;;;11.65;;
47758;SDS011;33520;55.122;35.582;2022-12-10T00:46:21;28.00;;;11.18;;
47758;SDS011;33520;55.122;35.582;2022-12-10T00:48:47;26.75;;;11.35;;
47758;SDS011;33520;55.122;35.582;2022-12-10T00:51:15;27.23;;;10.90;;
47758;SDS011;33520;55.122;35.582;2022-12-10T00:53:46;28.73;;;11.60;;
47758;SDS011;33520;55.122;35.582;2022-12-10T00:56:14;28.15;;;11.02;;
47758;SDS011;33520;55.122;35.582;2022-12-10T00:58:42;27.55;;;11.38;;
47758;SDS011;33520;55.122;35.582;2022-12-10T01:03:55;27.90;;;10.70;;
47758;SDS011;33520;55.122;35.582;2022-12-10T01:06:24;24.45;;;9.10;;
47758;SDS011;33520;55.122;35.582;2022-12-10T01:08:55;29.35;;;10.25;;
47758;SDS011;33520;55.122;35.582;2022-12-10T01:11:26;24.55;;;9.48;;
47758;SDS011;33520;55.122;35.582;2022-12-10T01:13:55;21.25;;;8.90;;
47758;SDS011;33520;55.122;35.582;2022-12-10T01:18:52;23.40;;;9.95;;
47758;SDS011;33520;55.122;35.582;2022-12-10T01:21:20;23.88;;;10.02;;
47758;SDS011;33520;55.122;35.582;2022-12-10T01:23:47;22.38;;;9.40;;
47758;SDS011;33520;55.122;35.582;2022-12-10T01:26:16;22.65;;;8.90;;
47758;SDS011;33520;55.122;35.582;2022-12-10T01:28:44;24.45;;;9.40;;
47758;SDS011;33520;55.122;35.582;2022-12-10T01:31:14;22.33;;;9.38;;
47758;SDS011;33520;55.122;35.582;2022-12-10T01:33:42;19.83;;;8.63;;
47758;SDS011;33520;55.122;35.582;2022-12-10T01:36:11;21.33;;;9.75;;
47758;SDS011;33520;55.122;35.582;2022-12-10T01:38:42;19.83;;;8.80;;
47758;SDS011;33520;55.122;35.582;2022-12-10T01:41:16;21.73;;;10.27;;
47758;SDS011;33520;55.122;35.582;2022-12-10T01:43:49;18.13;;;8.68;;
47758;SDS011;33520;55.122;35.582;2022-12-10T01:46:29;21.58;;;8.65;;
47758;SDS011;33520;55.122;35.582;2022-12-10T01:48:57;21.55;;;8.77;;
47758;SDS011;33520;55.122;35.582;2022-12-10T01:51:29;22.38;;;8.45;;
47758;SDS011;33520;55.122;35.582;2022-12-10T01:53:58;21.67;;;9.23;;
47758;SDS011;33520;55.122;35.582;2022-12-10T01:56:24;20.63;;;9.18;;
47758;SDS011;33520;55.122;35.582;2022-12-10T01:58:52;18.55;;;7.40;;
47758;SDS011;33520;55.122;35.582;2022-12-10T02:03:52;17.25;;;8.77;;
47758;SDS011;33520;55.122;35.582;2022-12-10T02:06:27;20.27;;;8.50;;
47758;SDS011;33520;55.122;35.582;2022-12-10T02:09:19;24.98;;;8.60;;
47758;SDS011;33520;55.122;35.582;2022-12-10T02:12:15;20.10;;;8.23;;
47758;SDS011;33520;55.122;35.582;2022-12-10T02:18:13;18.65;;;7.18;;
47758;SDS011;33520;55.122;35.582;2022-12-10T02:20:25;23.30;;;8.38;;
47758;SDS011;33520;55.122;35.582;2022-12-10T02:22:59;19.30;;;7.35;;
47758;SDS011;33520;55.122;35.582;2022-12-10T02:25:39;18.42;;;7.68;;
47758;SDS011;33520;55.122;35.582;2022-12-10T02:28:13;22.83;;;8.40;;
47758;SDS011;33520;55.122;35.582;2022-12-10T02:30:50;17.30;;;7.53;;
47758;SDS011;33520;55.122;35.582;2022-12-10T02:35:43;18.13;;;7.18;;
47758;SDS011;33520;55.122;35.582;2022-12-10T02:38:19;17.58;;;7.47;;
47758;SDS011;33520;55.122;35.582;2022-12-10T02:40:50;22.77;;;8.07;;
47758;SDS011;33520;55.122;35.582;2022-12-10T02:43:21;17.25;;;7.18;;
47758;SDS011;33520;55.122;35.582;2022-12-10T02:45:49;19.83;;;8.60;;
47758;SDS011;33520;55.122;35.582;2022-12-10T02:48:18;19.42;;;8.27;;
47758;SDS011;33520;55.122;35.582;2022-12-10T02:53:10;20.55;;;8.10;;
47758;SDS011;33520;55.122;35.582;2022-12-10T02:55:47;20.98;;;7.90;;
47758;SDS011;33520;55.122;35.582;2022-12-10T02:58:28;20.58;;;7.80;;
47758;SDS011;33520;55.122;35.582;2022-12-10T03:01:44;19.45;;;8.13;;
47758;SDS011;33520;55.122;35.582;2022-12-10T03:04:04;18.75;;;7.72;;
47758;SDS011;33520;55.122;35.582;2022-12-10T03:06:53;22.00;;;9.25;;
47758;SDS011;33520;55.122;35.582;2022-12-10T03:09:26;21.58;;;8.95;;
47758;SDS011;33520;55.122;35.582;2022-12-10T03:11:58;24.08;;;8.07;;
47758;SDS011;33520;55.122;35.582;2022-12-10T03:14:28;19.65;;;7.97;;
47758;SDS011;33520;55.122;35.582;2022-12-10T03:16:57;22.17;;;7.63;;
47758;SDS011;33520;55.122;35.582;2022-12-10T03:19:58;20.65;;;7.32;;
47758;SDS011;33520;55.122;35.582;2022-12-10T03:22:18;17.08;;;8.20;;
47758;SDS011;33520;55.122;35.582;2022-12-10T03:24:46;21.08;;;8.20;;
47758;SDS011;33520;55.122;35.582;2022-12-10T03:27:13;14.57;;;7.10;;
47758;SDS011;33520;55.122;35.582;2022-12-10T03:29:44;25.73;;;8.48;;
47758;SDS011;33520;55.122;35.582;2022-12-10T03:32:12;21.05;;;7.65;;
47758;SDS011;33520;55.122;35.582;2022-12-10T03:34:39;20.83;;;8.55;;
47758;SDS011;33520;55.122;35.582;2022-12-10T03:39:32;23.38;;;7.65;;
47758;SDS011;33520;55.122;35.582;2022-12-10T03:44:43;20.90;;;8.98;;
47758;SDS011;33520;55.122;35.582;2022-12-10T03:47:10;24.08;;;9.15;;
47758;SDS011;33520;55.122;35.582;2022-12-10T03:49:38;22.60;;;8.30;;
47758;SDS011;33520;55.122;35.582;2022-12-10T03:52:05;22.60;;;7.65;;
47758;SDS011;33520;55.122;35.582;2022-12-10T03:54:31;19.30;;;7.93;;
47758;SDS011;33520;55.122;35.582;2022-12-10T03:56:58;22.80;;;7.40;;
47758;SDS011;33520;55.122;35.582;2022-12-10T03:59:24;16.23;;;7.05;;
47758;SDS011;33520;55.122;35.582;2022-12-10T04:01:50;16.90;;;7.85;;
47758;SDS011;33520;55.122;35.582;2022-12-10T04:06:43;21.48;;;8.30;;
47758;SDS011;33520;55.122;35.582;2022-12-10T04:09:11;22.15;;;8.00;;
47758;SDS011;33520;55.122;35.582;2022-12-10T04:11:39;22.60;;;8.88;;
47758;SDS011;33520;55.122;35.582;2022-12-10T04:14:07;20.88;;;7.53;;
47758;SDS011;33520;55.122;35.582;2022-12-10T04:16:54;21.73;;;7.57;;
47758;SDS011;33520;55.122;35.582;2022-12-10T04:19:20;24.92;;;9.18;;
47758;SDS011;33520;55.122;35.582;2022-12-10T04:21:47;21.65;;;7.80;;
47758;SDS011;33520;55.122;35.582;2022-12-10T04:24:33;21.40;;;8.07;;
47758;SDS011;33520;55.122;35.582;2022-12-10T04:27:26;22.73;;;8.00;;
47758;SDS011;33520;55.122;35.582;2022-12-10T04:29:54;24.42;;;8.68;;
47758;SDS011;33520;55.122;35.582;2022-12-10T04:32:21;24.10;;;8.55;;
47758;SDS011;33520;55.122;35.582;2022-12-10T04:34:48;21.85;;;8.13;;
47758;SDS011;33520;55.122;35.582;2022-12-10T04:37:15;22.60;;;8.48;;
47758;SDS011;33520;55.122;35.582;2022-12-10T04:39:42;20.88;;;7.80;;
47758;SDS011;33520;55.122;35.582;2022-12-10T04:42:08;25.27;;;9.82;;
47758;SDS011;33520;55.122;35.582;2022-12-10T04:44:35;22.88;;;8.93;;
47758;SDS011;33520;55.122;35.582;2022-12-10T04:47:02;22.45;;;8.65;;
47758;SDS011;33520;55.122;35.582;2022-12-10T04:49:29;21.73;;;8.82;;
47758;SDS011;33520;55.122;35.582;2022-12-10T04:51:57;28.38;;;9.02;;
47758;SDS011;33520;55.122;35.582;2022-12-10T04:54:24;21.80;;;9.27;;
47758;SDS011;33520;55.122;35.582;2022-12-10T04:56:53;20.70;;;9.23;;
47758;SDS011;33520;55.122;35.582;2022-12-10T05:01:45;23.38;;;8.82;;
47758;SDS011;33520;55.122;35.582;2022-12-10T05:06:40;25.98;;;8.98;;
47758;SDS011;33520;55.122;35.582;2022-12-10T05:11:32;23.00;;;8.90;;
47758;SDS011;33520;55.122;35.582;2022-12-10T05:14:00;24.23;;;9.13;;
47758;SDS011;33520;55.122;35.582;2022-12-10T05:16:27;26.17;;;9.55;;
47758;SDS011;33520;55.122;35.582;2022-12-10T05:18:55;23.40;;;10.02;;
47758;SDS011;33520;55.122;35.582;2022-12-10T05:21:23;25.15;;;9.68;;
47758;SDS011;33520;55.122;35.582;2022-12-10T05:24:11;20.90;;;8.98;;
47758;SDS011;33520;55.122;35.582;2022-12-10T05:26:38;21.70;;;8.77;;
47758;SDS011;33520;55.122;35.582;2022-12-10T05:29:04;18.70;;;9.00;;
47758;SDS011;33520;55.122;35.582;2022-12-10T05:31:31;23.65;;;8.63;;
47758;SDS011;33520;55.122;35.582;2022-12-10T05:33:57;21.55;;;8.73;;
47758;SDS011;33520;55.122;35.582;2022-12-10T05:36:24;22.13;;;8.77;;
47758;SDS011;33520;55.122;35.582;2022-12-10T05:38:55;21.80;;;8.35;;
47758;SDS011;33520;55.122;35.582;2022-12-10T05:41:25;25.83;;;8.85;;
47758;SDS011;33520;55.122;35.582;2022-12-10T05:43:53;20.83;;;8.38;;
47758;SDS011;33520;55.122;35.582;2022-12-10T05:46:21;23.23;;;9.52;;
47758;SDS011;33520;55.122;35.582;2022-12-10T05:48:52;19.00;;;8.82;;
47758;SDS011;33520;55.122;35.582;2022-12-10T05:51:20;19.52;;;8.82;;
47758;SDS011;33520;55.122;35.582;2022-12-10T05:53:52;23.05;;;9.35;;
47758;SDS011;33520;55.122;35.582;2022-12-10T05:56:20;22.58;;;9.68;;
47758;SDS011;33520;55.122;35.582;2022-12-10T05:58:48;22.20;;;8.85;;
47758;SDS011;33520;55.122;35.582;2022-12-10T06:01:19;20.40;;;8.95;;
47758;SDS011;33520;55.122;35.582;2022-12-10T06:03:48;24.67;;;9.50;;
47758;SDS011;33520;55.122;35.582;2022-12-10T06:06:20;23.63;;;10.70;;
47758;SDS011;33520;55.122;35.582;2022-12-10T06:08:50;21.38;;;9.18;;
47758;SDS011;33520;55.122;35.582;2022-12-10T06:11:17;24.83;;;9.35;;
47758;SDS011;33520;55.122;35.582;2022-12-10T06:13:43;25.00;;;10.00;;
47758;SDS011;33520;55.122;35.582;2022-12-10T06:16:10;21.42;;;8.48;;
47758;SDS011;33520;55.122;35.582;2022-12-10T06:18:37;22.73;;;9.77;;
47758;SDS011;33520;55.122;35.582;2022-12-10T06:21:05;21.15;;;9.45;;
47758;SDS011;33520;55.122;35.582;2022-12-10T06:23:36;20.92;;;9.60;;
47758;SDS011;33520;55.122;35.582;2022-12-10T06:26:08;22.45;;;9.23;;
47758;SDS011;33520;55.122;35.582;2022-12-10T06:28:35;25.20;;;9.35;;
47758;SDS011;33520;55.122;35.582;2022-12-10T06:31:02;22.30;;;9.82;;
47758;SDS011;33520;55.122;35.582;2022-12-10T06:33:29;29.00;;;10.88;;
47758;SDS011;33520;55.122;35.582;2022-12-10T06:35:55;25.35;;;10.13;;
47758;SDS011;33520;55.122;35.582;2022-12-10T06:38:21;27.77;;;9.73;;
47758;SDS011;33520;55.122;35.582;2022-12-10T06:40:48;25.95;;;10.43;;
47758;SDS011;33520;55.122;35.582;2022-12-10T06:43:14;25.80;;;10.15;;
47758;SDS011;33520;55.122;35.582;2022-12-10T06:45:41;28.48;;;10.50;;
47758;SDS011;33520;55.122;35.582;2022-12-10T06:48:07;26.02;;;10.10;;
47758;SDS011;33520;55.122;35.582;2022-12-10T06:50:35;28.33;;;10.57;;
47758;SDS011;33520;55.122;35.582;2022-12-10T06:53:02;25.85;;;10.15;;
47758;SDS011;33520;55.122;35.582;2022-12-10T06:55:29;26.45;;;11.30;;
47758;SDS011;33520;55.122;35.582;2022-12-10T06:57:57;23.63;;;9.63;;
47758;SDS011;33520;55.122;35.582;2022-12-10T07:00:23;27.08;;;9.88;;
47758;SDS011;33520;55.122;35.582;2022-12-10T07:02:49;32.38;;;10.15;;
47758;SDS011;33520;55.122;35.582;2022-12-10T07:05:16;24.80;;;10.32;;
47758;SDS011;33520;55.122;35.582;2022-12-10T07:07:42;30.02;;;10.48;;
47758;SDS011;33520;55.122;35.582;2022-12-10T07:10:08;25.90;;;9.85;;
47758;SDS011;33520;55.122;35.582;2022-12-10T07:12:35;31.05;;;10.77;;
47758;SDS011;33520;55.122;35.582;2022-12-10T07:15:01;24.17;;;10.80;;
47758;SDS011;33520;55.122;35.582;2022-12-10T07:17:30;28.65;;;10.70;;
47758;SDS011;33520;55.122;35.582;2022-12-10T07:19:56;24.20;;;10.10;;
47758;SDS011;33520;55.122;35.582;2022-12-10T07:22:22;24.15;;;9.55;;
47758;SDS011;33520;55.122;35.582;2022-12-10T07:24:50;24.17;;;10.88;;
47758;SDS011;33520;55.122;35.582;2022-12-10T07:27:16;30.52;;;11.15;;
47758;SDS011;33520;55.122;35.582;2022-12-10T07:29:43;28.10;;;11.90;;
47758;SDS011;33520;55.122;35.582;2022-12-10T07:32:09;27.13;;;11.18;;
47758;SDS011;33520;55.122;35.582;2022-12-10T07:34:36;23.45;;;10.00;;
47758;SDS011;33520;55.122;35.582;2022-12-10T07:37:02;31.38;;;12.77;;
47758;SDS011;33520;55.122;35.582;2022-12-10T07:39:28;27.30;;;10.82;;
47758;SDS011;33520;55.122;35.582;2022-12-10T07:41:54;30.13;;;10.25;;
47758;SDS011;33520;55.122;35.582;2022-12-10T07:44:21;23.50;;;10.32;;
47758;SDS011;33520;55.122;35.582;2022-12-10T07:46:49;26.33;;;10.63;;
47758;SDS011;33520;55.122;35.582;2022-12-10T07:49:16;24.80;;;10.73;;
47758;SDS011;33520;55.122;35.582;2022-12-10T07:54:10;24.92;;;10.23;;
47758;SDS011;33520;55.122;35.582;2022-12-10T07:56:36;23.45;;;10.55;;
47758;SDS011;33520;55.122;35.582;2022-12-10T07:59:02;30.55;;;10.77;;
47758;SDS011;33520;55.122;35.582;2022-12-10T08:01:28;32.10;;;10.90;;
47758;SDS011;33520;55.122;35.582;2022-12-10T08:03:56;30.15;;;12.20;;
47758;SDS011;33520;55.122;35.582;2022-12-10T08:06:23;28.42;;;10.80;;
47758;SDS011;33520;55.122;35.582;2022-12-10T08:08:50;33.80;;;11.90;;
47758;SDS011;33520;55.122;35.582;2022-12-10T08:11:17;25.65;;;10.82;;
47758;SDS011;33520;55.122;35.582;2022-12-10T08:13:45;34.08;;;10.48;;
47758;SDS011;33520;55.122;35.582;2022-12-10T08:16:13;26.83;;;11.50;;
47758;SDS011;33520;55.122;35.582;2022-12-10T08:18:41;26.52;;;10.80;;
47758;SDS011;33520;55.122;35.582;2022-12-10T08:21:09;29.67;;;10.70;;
47758;SDS011;33520;55.122;35.582;2022-12-10T08:23:37;28.67;;;10.77;;
47758;SDS011;33520;55.122;35.582;2022-12-10T08:26:04;32.75;;;11.50;;
47758;SDS011;33520;55.122;35.582;2022-12-10T08:28:35;29.23;;;10.98;;
47758;SDS011;33520;55.122;35.582;2022-12-10T08:33:28;25.58;;;10.23;;
47758;SDS011;33520;55.122;35.582;2022-12-10T08:35:58;30.92;;;10.90;;
47758;SDS011;33520;55.122;35.582;2022-12-10T08:38:29;31.58;;;12.02;;
47758;SDS011;33520;55.122;35.582;2022-12-10T08:40:56;31.10;;;10.63;;
47758;SDS011;33520;55.122;35.582;2022-12-10T08:43:22;30.02;;;11.05;;
47758;SDS011;33520;55.122;35.582;2022-12-10T08:48:15;32.15;;;11.43;;
47758;SDS011;33520;55.122;35.582;2022-12-10T08:50:41;32.95;;;12.68;;
47758;SDS011;33520;55.122;35.582;2022-12-10T08:53:07;32.03;;;11.38;;
47758;SDS011;33520;55.122;35.582;2022-12-10T08:55:37;32.90;;;10.85;;
47758;SDS011;33520;55.122;35.582;2022-12-10T08:58:05;44.00;;;12.57;;
47758;SDS011;33520;55.122;35.582;2022-12-10T09:00:31;42.03;;;14.25;;
47758;SDS011;33520;55.122;35.582;2022-12-10T09:02:58;30.58;;;11.05;;
47758;SDS011;33520;55.122;35.582;2022-12-10T09:05:24;30.20;;;11.93;;
47758;SDS011;33520;55.122;35.582;2022-12-10T09:07:50;29.35;;;11.13;;
47758;SDS011;33520;55.122;35.582;2022-12-10T09:10:17;30.65;;;10.00;;
47758;SDS011;33520;55.122;35.582;2022-12-10T09:12:43;29.60;;;11.45;;
47758;SDS011;33520;55.122;35.582;2022-12-10T09:15:10;27.17;;;9.43;;
47758;SDS011;33520;55.122;35.582;2022-12-10T09:17:36;30.20;;;10.52;;
47758;SDS011;33520;55.122;35.582;2022-12-10T09:20:04;31.48;;;10.60;;
47758;SDS011;33520;55.122;35.582;2022-12-10T09:22:31;29.48;;;10.30;;
47758;SDS011;33520;55.122;35.582;2022-12-10T09:24:58;30.40;;;11.32;;
47758;SDS011;33520;55.122;35.582;2022-12-10T09:29:51;37.85;;;10.70;;
47758;SDS011;33520;55.122;35.582;2022-12-10T09:32:18;27.30;;;12.23;;
47758;SDS011;33520;55.122;35.582;2022-12-10T09:34:44;25.88;;;9.32;;
47758;SDS011;33520;55.122;35.582;2022-12-10T09:37:11;31.55;;;11.50;;
47758;SDS011;33520;55.122;35.582;2022-12-10T09:39:37;31.05;;;11.82;;
47758;SDS011;33520;55.122;35.582;2022-12-10T09:42:13;24.38;;;10.38;;
47758;SDS011;33520;55.122;35.582;2022-12-10T09:47:36;30.00;;;10.20;;
47758;SDS011;33520;55.122;35.582;2022-12-10T09:52:39;33.97;;;11.90;;
47758;SDS011;33520;55.122;35.582;2022-12-10T09:55:12;29.77;;;10.82;;
47758;SDS011;33520;55.122;35.582;2022-12-10T09:57:44;27.27;;;11.68;;
47758;SDS011;33520;55.122;35.582;2022-12-10T10:03:06;27.13;;;11.32;;
47758;SDS011;33520;55.122;35.582;2022-12-10T10:05:39;31.70;;;9.68;;
47758;SDS011;33520;55.122;35.582;2022-12-10T10:08:12;23.45;;;9.95;;
47758;SDS011;33520;55.122;35.582;2022-12-10T10:10:41;25.60;;;10.50;;
47758;SDS011;33520;55.122;35.582;2022-12-10T10:13:27;25.60;;;10.25;;
47758;SDS011;33520;55.122;35.582;2022-12-10T10:16:14;30.67;;;11.02;;
47758;SDS011;33520;55.122;35.582;2022-12-10T10:42:43;22.58;;;8.93;;
47758;SDS011;33520;55.122;35.582;2022-12-10T10:48:12;22.58;;;8.27;;
47758;SDS011;33520;55.122;35.582;2022-12-10T10:50:56;21.50;;;9.23;;
47758;SDS011;33520;55.122;35.582;2022-12-10T10:53:32;19.80;;;9.10;;
47758;SDS011;33520;55.122;35.582;2022-12-10T10:58:55;20.15;;;9.38;;
47758;SDS011;33520;55.122;35.582;2022-12-10T11:01:43;21.67;;;8.90;;
47758;SDS011;33520;55.122;35.582;2022-12-10T11:04:10;19.13;;;9.15;;
47758;SDS011;33520;55.122;35.582;2022-12-10T11:06:37;24.75;;;9.00;;
47758;SDS011;33520;55.122;35.582;2022-12-10T11:09:03;24.75;;;9.35;;
47758;SDS011;33520;55.122;35.582;2022-12-10T11:14:15;20.35;;;8.85;;
47758;SDS011;33520;55.122;35.582;2022-12-10T11:17:17;20.80;;;7.90;;
47758;SDS011;33520;55.122;35.582;2022-12-10T11:22:25;23.42;;;8.45;;
47758;SDS011;33520;55.122;35.582;2022-12-10T11:24:57;20.85;;;9.20;;
47758;SDS011;33520;55.122;35.582;2022-12-10T11:30:20;21.88;;;7.65;;
47758;SDS011;33520;55.122;35.582;2022-12-10T11:38:30;19.75;;;9.18;;
47758;SDS011;33520;55.122;35.582;2022-12-10T11:49:51;17.67;;;8.15;;
47758;SDS011;33520;55.122;35.582;2022-12-10T12:03:15;18.15;;;8.50;;
47758;SDS011;33520;55.122;35.582;2022-12-10T12:10:59;22.05;;;9.35;;
47758;SDS011;33520;55.122;35.582;2022-12-10T12:13:55;20.10;;;8.07;;
47758;SDS011;33520;55.122;35.582;2022-12-10T12:19:17;19.92;;;8.70;;
47758;SDS011;33520;55.122;35.582;2022-12-10T12:24:53;17.08;;;7.53;;
47758;SDS011;33520;55.122;35.582;2022-12-10T12:27:27;18.38;;;8.63;;
47758;SDS011;33520;55.122;35.582;2022-12-10T12:30:06;19.17;;;8.55;;
47758;SDS011;33520;55.122;35.582;2022-12-10T12:32:54;19.35;;;8.35;;
47758;SDS011;33520;55.122;35.582;2022-12-10T12:43:37;24.40;;;10.23;;
47758;SDS011;33520;55.122;35.582;2022-12-10T12:46:18;19.48;;;8.70;;
47758;SDS011;33520;55.122;35.582;2022-12-10T12:48:55;20.27;;;8.90;;
47758;SDS011;33520;55.122;35.582;2022-12-10T12:51:39;27.00;;;9.82;;
47758;SDS011;33520;55.122;35.582;2022-12-10T12:54:14;23.83;;;9.88;;
47758;SDS011;33520;55.122;35.582;2022-12-10T13:02:08;24.38;;;9.63;;
47758;SDS011;33520;55.122;35.582;2022-12-10T13:04:46;22.98;;;9.15;;
47758;SDS011;33520;55.122;35.582;2022-12-10T13:09:45;21.33;;;8.35;;
47758;SDS011;33520;55.122;35.582;2022-12-10T13:18:02;19.80;;;9.00;;
47758;SDS011;33520;55.122;35.582;2022-12-10T13:33:47;18.25;;;9.02;;
47758;SDS011;33520;55.122;35.582;2022-12-10T13:41:31;23.38;;;9.88;;
47758;SDS011;33520;55.122;35.582;2022-12-10T13:49:54;31.08;;;10.23;;
47758;SDS011;33520;55.122;35.582;2022-12-10T13:52:25;23.27;;;10.65;;
47758;SDS011;33520;55.122;35.582;2022-12-10T13:54:59;23.67;;;9.45;;
47758;SDS011;33520;55.122;35.582;2022-12-10T14:00:35;26.25;;;10.48;;
47758;SDS011;33520;55.122;35.582;2022-12-10T14:06:08;26.38;;;10.07;;
47758;SDS011;33520;55.122;35.582;2022-12-10T14:08:52;25.35;;;10.23;;
47758;SDS011;33520;55.122;35.582;2022-12-10T14:11:32;23.05;;;9.80;;
47758;SDS011;33520;55.122;35.582;2022-12-10T14:14:01;26.67;;;10.82;;
47758;SDS011;33520;55.122;35.582;2022-12-10T14:16:29;30.27;;;11.77;;
47758;SDS011;33520;55.122;35.582;2022-12-10T14:19:04;23.63;;;10.32;;
47758;SDS011;33520;55.122;35.582;2022-12-10T14:21:33;24.27;;;10.00;;
47758;SDS011;33520;55.122;35.582;2022-12-10T14:24:00;19.17;;;9.82;;
47758;SDS011;33520;55.122;35.582;2022-12-10T14:26:28;27.83;;;11.07;;
47758;SDS011;33520;55.122;35.582;2022-12-10T14:28:57;27.17;;;10.40;;
47758;SDS011;33520;55.122;35.582;2022-12-10T14:31:38;18.45;;;8.73;;
47758;SDS011;33520;55.122;35.582;2022-12-10T14:34:14;21.20;;;9.90;;
47758;SDS011;33520;55.122;35.582;2022-12-10T14:36:47;23.98;;;10.55;;
47758;SDS011;33520;55.122;35.582;2022-12-10T14:39:22;22.80;;;9.23;;
47758;SDS011;33520;55.122;35.582;2022-12-10T14:41:53;25.98;;;11.60;;
47758;SDS011;33520;55.122;35.582;2022-12-10T14:44:22;24.50;;;10.82;;
47758;SDS011;33520;55.122;35.582;2022-12-10T14:46:49;26.35;;;10.02;;
47758;SDS011;33520;55.122;35.582;2022-12-10T14:49:21;24.85;;;9.75;;
47758;SDS011;33520;55.122;35.582;2022-12-10T14:51:50;21.55;;;10.25;;
47758;SDS011;33520;55.122;35.582;2022-12-10T14:54:50;22.45;;;9.98;;
47758;SDS011;33520;55.122;35.582;2022-12-10T14:57:26;25.40;;;11.38;;
47758;SDS011;33520;55.122;35.582;2022-12-10T15:02:41;21.63;;;9.50;;
47758;SDS011;33520;55.122;35.582;2022-12-10T15:05:12;18.35;;;9.27;;
47758;SDS011;33520;55.122;35.582;2022-12-10T15:07:41;19.10;;;9.05;;
47758;SDS011;33520;55.122;35.582;2022-12-10T15:10:16;19.70;;;8.73;;
47758;SDS011;33520;55.122;35.582;2022-12-10T15:12:45;20.23;;;9.07;;
47758;SDS011;33520;55.122;35.582;2022-12-10T15:15:19;21.00;;;9.48;;
47758;SDS011;33520;55.122;35.582;2022-12-10T15:18:09;20.90;;;8.63;;
47758;SDS011;33520;55.122;35.582;2022-12-10T15:20:38;18.10;;;8.60;;
47758;SDS011;33520;55.122;35.582;2022-12-10T15:36:28;15.73;;;7.53;;
47758;SDS011;33520;55.122;35.582;2022-12-10T15:39:12;17.55;;;7.75;;
47758;SDS011;33520;55.122;35.582;2022-12-10T15:41:44;17.67;;;8.38;;
47758;SDS011;33520;55.122;35.582;2022-12-10T15:49:44;13.88;;;7.00;;
47758;SDS011;33520;55.122;35.582;2022-12-10T15:52:12;15.60;;;7.32;;
47758;SDS011;33520;55.122;35.582;2022-12-10T15:54:46;17.38;;;7.30;;
47758;SDS011;33520;55.122;35.582;2022-12-10T15:59:58;18.15;;;8.25;;
47758;SDS011;33520;55.122;35.582;2022-12-10T16:03:01;18.15;;;7.72;;
47758;SDS011;33520;55.122;35.582;2022-12-10T16:05:29;14.75;;;6.85;;
47758;SDS011;33520;55.122;35.582;2022-12-10T16:07:58;14.43;;;8.23;;
47758;SDS011;33520;55.122;35.582;2022-12-10T16:10:27;15.05;;;7.03;;
47758;SDS011;33520;55.122;35.582;2022-12-10T16:13:03;18.20;;;8.13;;
47758;SDS011;33520;55.122;35.582;2022-12-10T16:15:32;16.70;;;7.18;;
47758;SDS011;33520;55.122;35.582;2022-12-10T16:18:03;17.25;;;8.77;;
47758;SDS011;33520;55.122;35.582;2022-12-10T16:20:30;15.88;;;7.13;;
47758;SDS011;33520;55.122;35.582;2022-12-10T16:22:59;17.17;;;7.25;;
47758;SDS011;33520;55.122;35.582;2022-12-10T16:25:27;18.42;;;6.40;;
47758;SDS011;33520;55.122;35.582;2022-12-10T16:27:54;18.33;;;7.93;;
47758;SDS011;33520;55.122;35.582;2022-12-10T16:30:22;13.48;;;6.68;;
47758;SDS011;33520;55.122;35.582;2022-12-10T16:32:53;16.65;;;7.22;;
47758;SDS011;33520;55.122;35.582;2022-12-10T16:35:21;16.20;;;7.13;;
47758;SDS011;33520;55.122;35.582;2022-12-10T16:37:47;17.60;;;7.70;;
47758;SDS011;33520;55.122;35.582;2022-12-10T16:40:20;15.95;;;7.22;;
47758;SDS011;33520;55.122;35.582;2022-12-10T16:42:47;14.63;;;7.03;;
